createdAt,value
2022-08-18T00:02:30.644Z,101398.91
2022-08-18T00:05:34.102Z,101402.38
2022-08-18T00:08:40.467Z,101405.03
2022-08-18T00:11:44.028Z,101390.91
2022-08-18T00:14:47.069Z,101393.31
2022-08-18T00:17:49.045Z,101384.50
2022-08-18T00:20:51.220Z,101383.84
2022-08-18T00:23:53.726Z,101383.22
2022-08-18T00:26:55.743Z,101375.50
2022-08-18T00:30:01.703Z,101374.69
2022-08-18T00:33:03.761Z,101371.66
2022-08-18T00:36:05.831Z,101374.06
2022-08-18T00:39:07.902Z,101374.06
2022-08-18T00:42:28.930Z,101382.41
2022-08-18T00:45:36.027Z,101378.66
2022-08-18T00:48:38.050Z,101378.06
2022-08-18T00:51:46.281Z,101393.19
2022-08-18T00:54:50.433Z,101385.78
2022-08-18T00:57:55.430Z,101399.44
2022-08-18T01:00:59.774Z,101400.59
2022-08-18T01:04:19.445Z,101402.84
2022-08-18T01:07:26.833Z,101414.75
2022-08-18T01:10:29.867Z,101411.63
2022-08-18T01:13:32.741Z,101408.34
2022-08-18T01:16:35.673Z,101408.34
2022-08-18T01:19:37.859Z,101403.03
2022-08-18T01:22:45.878Z,101403.88
2022-08-18T01:25:49.904Z,101396.69
2022-08-18T01:28:52.185Z,101393.22
2022-08-18T01:31:54.260Z,101400.28
2022-08-18T01:34:57.075Z,101401.16
2022-08-18T01:37:59.084Z,101402.94
2022-08-18T01:41:27.152Z,101402.41
2022-08-18T01:44:23.174Z,101403.69
2022-08-18T01:47:25.466Z,101403.31
2022-08-18T01:50:27.469Z,101402.50
2022-08-18T01:53:29.581Z,101415.13
2022-08-18T01:56:31.657Z,101412.59
2022-08-18T01:59:33.662Z,101421.78
2022-08-18T02:02:35.889Z,101421.16
2022-08-18T02:05:44.810Z,101429.31
2022-08-18T02:08:53.826Z,101432.16
2022-08-18T02:11:56.219Z,101429.44
2022-08-18T02:14:58.250Z,101436.09
2022-08-18T02:18:00.667Z,101429.38
2022-08-18T02:21:14.461Z,101426.41
2022-08-18T02:24:21.242Z,101428.06
2022-08-18T02:27:23.315Z,101425.31
2022-08-18T02:30:25.392Z,101429.72
2022-08-18T02:33:27.425Z,101426.03
2022-08-18T02:36:29.447Z,101420.94
2022-08-18T02:39:35.286Z,101420.31
2022-08-18T02:42:37.353Z,101424.84
2022-08-18T02:45:39.701Z,101432.34
2022-08-18T02:48:41.724Z,101436.00
2022-08-18T02:51:44.763Z,101434.28
2022-08-18T02:54:46.796Z,101427.00
2022-08-18T02:57:48.893Z,101434.72
2022-08-18T03:00:50.921Z,101440.00
2022-08-18T03:03:53.667Z,101437.91
2022-08-18T03:07:01.619Z,101435.84
2022-08-18T03:10:31.948Z,101444.56
2022-08-18T03:13:25.938Z,101445.00
2022-08-18T03:16:28.095Z,101450.00
2022-08-18T03:19:30.285Z,101456.00
2022-08-18T03:22:32.321Z,101444.31
2022-08-18T03:25:34.443Z,101444.84
2022-08-18T03:28:36.894Z,101448.31
2022-08-18T03:31:39.394Z,101449.13
2022-08-18T03:34:41.417Z,101442.88
2022-08-18T03:37:43.483Z,101448.06
2022-08-18T03:40:51.997Z,101439.13
2022-08-18T03:43:54.143Z,101447.88
2022-08-18T03:46:57.026Z,101446.88
2022-08-18T03:49:59.046Z,101453.94
2022-08-18T03:53:01.192Z,101449.53
2022-08-18T03:56:08.011Z,101451.25
2022-08-18T03:59:18.984Z,101445.94
2022-08-18T04:02:21.005Z,101448.72
2022-08-18T04:05:23.073Z,101444.44
2022-08-18T04:08:25.095Z,101432.22
2022-08-18T04:11:27.311Z,101442.25
2022-08-18T04:14:29.346Z,101439.78
2022-08-18T04:17:31.350Z,101445.09
2022-08-18T04:20:33.590Z,101439.78
2022-08-18T04:23:43.441Z,101428.41
2022-08-18T04:26:47.759Z,101442.16
2022-08-18T04:29:50.225Z,101445.09
2022-08-18T04:32:52.353Z,101441.81
2022-08-18T04:35:55.569Z,101430.47
2022-08-18T04:38:58.090Z,101431.53
2022-08-18T04:42:00.375Z,101427.03
2022-08-18T04:45:02.402Z,101435.94
2022-08-18T04:48:04.561Z,101437.66
2022-08-18T04:51:09.973Z,101439.13
2022-08-18T04:54:11.984Z,101426.66
2022-08-18T04:57:16.933Z,101431.84
2022-08-18T05:00:18.953Z,101435.28
2022-08-18T05:03:20.986Z,101435.28
2022-08-18T05:06:24.746Z,101439.69
2022-08-18T05:09:27.014Z,101440.53
2022-08-18T05:12:30.619Z,101447.81
2022-08-18T05:15:52.707Z,101451.59
2022-08-18T05:18:54.859Z,101458.06
2022-08-18T05:22:00.103Z,101451.81
2022-08-18T05:25:05.892Z,101441.00
2022-08-18T05:28:07.902Z,101446.19
2022-08-18T05:31:21.207Z,101442.94
2022-08-18T05:34:23.208Z,101443.63
2022-08-18T05:37:35.944Z,101434.31
2022-08-18T05:40:38.199Z,101430.19
2022-08-18T05:43:51.974Z,101431.41
2022-08-18T05:46:56.523Z,101441.75
2022-08-18T05:50:08.209Z,101445.94
2022-08-18T05:53:14.849Z,101440.16
2022-08-18T05:56:27.242Z,101436.75
2022-08-18T05:59:35.529Z,101437.13
2022-08-18T06:02:57.817Z,101438.34
2022-08-18T06:06:02.805Z,101435.09
2022-08-18T06:09:19.340Z,101442.50
2022-08-18T06:12:31.141Z,101436.91
2022-08-18T06:15:50.155Z,101442.56
2022-08-18T06:19:17.541Z,101434.31
2022-08-18T06:22:36.338Z,101436.38
2022-08-18T06:26:31.584Z,101435.56
2022-08-18T06:29:57.586Z,101431.81
2022-08-18T06:33:18.584Z,101434.88
2022-08-18T06:36:43.412Z,101439.97
2022-08-18T06:39:49.523Z,101445.84
2022-08-18T06:42:51.608Z,101443.34
2022-08-18T06:45:54.605Z,101447.00
2022-08-18T06:49:03.591Z,101449.31
2022-08-18T06:52:26.705Z,101454.25
2022-08-18T06:55:41.036Z,101457.75
2022-08-18T06:58:43.062Z,101468.44
2022-08-18T07:01:47.262Z,101459.38
2022-08-18T07:05:18.644Z,101469.31
2022-08-18T07:08:33.823Z,101478.47
2022-08-18T07:11:37.654Z,101481.72
2022-08-18T07:14:49.817Z,101489.59
2022-08-18T07:18:04.133Z,101485.75
2022-08-18T07:21:06.205Z,101481.88
2022-08-18T07:24:24.821Z,101480.09
2022-08-18T07:27:48.997Z,101484.41
2022-08-18T07:31:15.574Z,101474.13
2022-08-18T07:34:28.264Z,101481.28
2022-08-18T07:37:42.481Z,101481.78
2022-08-18T07:40:52.674Z,101486.69
2022-08-18T07:43:57.659Z,101483.84
2022-08-18T07:47:02.848Z,101486.56
2022-08-18T07:50:31.528Z,101489.78
2022-08-18T07:53:40.870Z,101491.69
2022-08-18T07:56:43.977Z,101495.88
2022-08-18T08:00:23.080Z,101501.38
2022-08-18T08:03:51.731Z,101499.81
2022-08-18T08:07:23.498Z,101498.50
2022-08-18T08:10:39.417Z,101494.16
2022-08-18T08:14:19.781Z,101499.94
2022-08-18T08:17:42.619Z,101494.53
2022-08-18T08:21:10.538Z,101493.97
2022-08-18T08:24:18.409Z,101497.69
2022-08-18T08:27:46.349Z,101495.41
2022-08-18T08:31:33.463Z,101491.66
2022-08-18T08:34:55.382Z,101485.81
2022-08-18T08:38:38.729Z,101486.03
2022-08-18T08:41:42.486Z,101482.00
2022-08-18T08:45:00.475Z,101479.88
2022-08-18T08:48:30.580Z,101488.00
2022-08-18T08:51:39.414Z,101483.22
2022-08-18T08:54:51.763Z,101488.41
2022-08-18T08:58:18.489Z,101489.50
2022-08-18T09:01:29.309Z,101483.56
2022-08-18T09:05:07.352Z,101483.47
2022-08-18T09:08:13.303Z,101482.69
2022-08-18T09:11:46.933Z,101487.41
2022-08-18T09:15:09.501Z,101489.09
2022-08-18T09:18:38.844Z,101493.44
2022-08-18T09:21:57.132Z,101495.69
2022-08-18T09:24:59.845Z,101489.47
2022-08-18T09:28:27.660Z,101483.63
2022-08-18T09:31:32.343Z,101477.31
2022-08-18T09:35:07.834Z,101494.72
2022-08-18T09:38:22.123Z,101498.81
2022-08-18T09:41:35.144Z,101503.53
2022-08-18T09:44:46.691Z,101506.88
2022-08-18T09:47:54.828Z,101506.25
2022-08-18T09:51:21.091Z,101496.03
2022-08-18T09:54:33.535Z,101483.63
2022-08-18T09:57:42.382Z,101483.47
2022-08-18T10:01:19.563Z,101489.75
2022-08-18T10:04:29.533Z,101484.53
2022-08-18T10:07:41.950Z,101471.31
2022-08-18T10:11:20.690Z,101472.38
2022-08-18T10:14:45.294Z,101473.81
2022-08-18T10:17:56.925Z,101468.25
2022-08-18T10:21:08.457Z,101464.41
2022-08-18T10:27:41.907Z,101468.72
2022-08-18T10:31:06.340Z,101466.97
2022-08-18T10:34:16.928Z,101473.09
2022-08-18T10:37:33.397Z,101482.53
2022-08-18T10:40:36.603Z,101468.63
2022-08-18T10:47:12.292Z,101459.91
2022-08-18T10:50:22.831Z,101468.72
2022-08-18T10:53:44.431Z,101472.94
2022-08-18T10:56:54.384Z,101473.22
2022-08-18T11:00:10.256Z,101471.22
2022-08-18T11:03:51.152Z,101464.31
2022-08-18T11:07:07.545Z,101468.63
2022-08-18T11:10:29.858Z,101461.69
2022-08-18T11:14:10.808Z,101465.41
2022-08-18T11:17:28.950Z,101455.50
2022-08-18T11:20:33.354Z,101466.66
2022-08-18T11:23:35.508Z,101463.72
2022-08-18T11:26:52.562Z,101460.06
2022-08-18T11:30:00.622Z,101462.00
2022-08-18T11:33:03.805Z,101469.06
2022-08-18T11:36:06.535Z,101457.94
2022-08-18T11:39:13.350Z,101450.41
2022-08-18T11:42:25.051Z,101446.13
2022-08-18T11:45:34.130Z,101445.22
2022-08-18T11:48:50.992Z,101449.00
2022-08-18T11:52:29.413Z,101449.31
2022-08-18T11:55:36.857Z,101449.34
2022-08-18T11:58:47.442Z,101440.16
2022-08-18T12:01:55.079Z,101426.66
2022-08-18T12:05:03.449Z,101432.03
2022-08-18T12:08:50.620Z,101432.97
2022-08-18T12:11:55.613Z,101427.44
2022-08-18T12:15:10.406Z,101425.88
2022-08-18T12:21:53.256Z,101407.84
2022-08-18T12:24:57.552Z,101413.00
2022-08-18T12:27:59.743Z,101408.06
2022-08-18T12:31:01.775Z,101407.63
2022-08-18T12:34:08.221Z,101420.94
2022-08-18T12:37:56.933Z,101413.63
2022-08-18T12:40:43.349Z,101418.06
2022-08-18T12:43:45.346Z,101411.72
2022-08-18T12:47:03.242Z,101404.75
2022-08-18T12:50:06.735Z,101407.50
2022-08-18T12:53:11.570Z,101410.25
2022-08-18T12:56:28.802Z,101412.66
2022-08-18T12:59:32.581Z,101416.56
2022-08-18T13:02:39.515Z,101417.66
2022-08-18T13:05:44.259Z,101425.41
2022-08-18T13:08:51.135Z,101428.13
2022-08-18T13:11:53.015Z,101430.34
2022-08-18T13:14:55.271Z,101432.53
2022-08-18T13:17:57.423Z,101430.09
2022-08-18T13:20:59.569Z,101421.34
2022-08-18T13:24:01.781Z,101419.41
2022-08-18T13:27:18.467Z,101428.09
2022-08-18T13:30:30.103Z,101431.00
2022-08-18T13:33:57.386Z,101438.94
2022-08-18T13:36:56.307Z,101445.91
2022-08-18T13:40:00.064Z,101451.00
2022-08-18T13:43:04.202Z,101446.56
2022-08-18T13:46:17.613Z,101458.75
2022-08-18T13:49:24.013Z,101441.88
2022-08-18T13:52:34.660Z,101451.88
2022-08-18T13:55:37.439Z,101455.06
2022-08-18T13:58:39.458Z,101449.44
2022-08-18T14:01:55.822Z,101453.31
2022-08-18T14:04:58.425Z,101449.66
2022-08-18T14:08:00.518Z,101455.81
2022-08-18T14:11:03.545Z,101452.03
2022-08-18T14:14:06.229Z,101451.00
2022-08-18T14:17:08.193Z,101449.56
2022-08-18T14:20:21.600Z,101438.16
2022-08-18T14:23:32.311Z,101433.19
2022-08-18T14:26:35.498Z,101438.81
2022-08-18T14:29:46.558Z,101440.91
2022-08-18T14:32:49.915Z,101438.78
2022-08-18T14:36:06.419Z,101437.66
2022-08-18T14:39:11.213Z,101425.41
2022-08-18T14:42:15.227Z,101428.38
2022-08-18T14:45:31.774Z,101429.97
2022-08-18T14:48:37.310Z,101423.88
2022-08-18T14:51:40.234Z,101433.56
2022-08-18T14:54:46.127Z,101419.59
2022-08-18T14:57:53.134Z,101426.00
2022-08-18T15:01:00.042Z,101417.22
2022-08-18T15:04:18.518Z,101424.41
2022-08-18T15:07:23.840Z,101414.91
2022-08-18T15:10:28.116Z,101409.94
2022-08-18T15:13:30.551Z,101407.38
2022-08-18T15:16:32.964Z,101421.50
2022-08-18T15:20:00.347Z,101420.44
2022-08-18T15:23:04.080Z,101429.84
2022-08-18T15:26:06.606Z,101428.38
2022-08-18T15:29:10.607Z,101424.44
2022-08-18T15:32:17.750Z,101422.34
2022-08-18T15:35:20.309Z,101426.34
2022-08-18T15:38:23.919Z,101418.81
2022-08-18T15:41:33.860Z,101414.00
2022-08-18T15:44:36.913Z,101414.00
2022-08-18T15:47:40.179Z,101422.47
2022-08-18T15:50:43.823Z,101419.91
2022-08-18T15:53:53.272Z,101425.00
2022-08-18T15:56:58.747Z,101415.94
2022-08-18T16:00:00.938Z,101423.47
2022-08-18T16:03:08.878Z,101423.19
2022-08-18T16:06:23.716Z,101422.19
2022-08-18T16:09:29.921Z,101429.22
2022-08-18T16:12:31.985Z,101421.94
2022-08-18T16:15:37.448Z,101415.84
2022-08-18T16:18:39.906Z,101411.31
2022-08-18T16:21:42.109Z,101420.81
2022-08-18T16:24:44.182Z,101417.00
2022-08-18T16:27:46.346Z,101407.25
2022-08-18T16:30:48.487Z,101414.00
2022-08-18T16:33:52.587Z,101413.16
2022-08-18T16:36:54.589Z,101409.22
2022-08-18T16:39:56.700Z,101397.59
2022-08-18T16:42:58.748Z,101402.28
2022-08-18T16:46:00.797Z,101398.25
2022-08-18T16:49:04.522Z,101388.94
2022-08-18T16:52:07.540Z,101385.63
2022-08-18T16:55:12.161Z,101386.22
2022-08-18T16:58:15.719Z,101392.56
2022-08-18T17:01:18.937Z,101387.19
2022-08-18T17:04:25.201Z,101389.50
2022-08-18T17:07:27.260Z,101395.88
2022-08-18T17:13:33.267Z,101387.88
2022-08-18T17:16:36.923Z,101398.25
2022-08-18T17:19:38.979Z,101389.81
2022-08-18T17:22:40.987Z,101392.59
2022-08-18T17:25:43.629Z,101384.16
2022-08-18T17:28:58.367Z,101385.88
2022-08-18T17:32:08.486Z,101385.19
2022-08-18T17:35:28.799Z,101391.16
2022-08-18T17:38:46.097Z,101395.53
2022-08-18T17:41:48.960Z,101398.91
2022-08-18T17:44:54.967Z,101390.53
2022-08-18T17:48:22.114Z,101399.69
2022-08-18T17:51:31.310Z,101401.53
2022-08-18T17:54:40.954Z,101401.22
2022-08-18T17:58:10.992Z,101404.31
2022-08-18T18:01:13.324Z,101407.66
2022-08-18T18:04:15.331Z,101404.06
2022-08-18T18:07:25.380Z,101398.56
2022-08-18T18:10:27.340Z,101401.13
2022-08-18T18:13:32.508Z,101393.91
2022-08-18T18:16:34.877Z,101389.34
2022-08-18T18:19:36.935Z,101382.88
2022-08-18T18:22:40.076Z,101378.09
2022-08-18T18:25:42.111Z,101392.09
2022-08-18T18:28:44.129Z,101387.91
2022-08-18T18:31:58.324Z,101384.22
2022-08-18T18:35:17.326Z,101387.56
2022-08-18T18:38:34.430Z,101388.94
2022-08-18T18:41:39.997Z,101395.00
2022-08-18T18:44:54.756Z,101395.97
2022-08-18T18:48:01.855Z,101398.69
2022-08-18T18:51:10.964Z,101402.94
2022-08-18T18:54:38.408Z,101403.59
2022-08-18T18:57:44.903Z,101408.06
2022-08-18T19:00:55.968Z,101405.06
2022-08-18T19:04:06.275Z,101405.81
2022-08-18T19:07:21.379Z,101407.25
2022-08-18T19:10:30.818Z,101390.06
2022-08-18T19:13:43.423Z,101398.72
2022-08-18T19:16:59.642Z,101394.84
2022-08-18T19:20:22.092Z,101394.59
2022-08-18T19:23:45.846Z,101394.53
2022-08-18T19:26:52.196Z,101389.69
2022-08-18T19:30:01.239Z,101389.53
2022-08-18T19:33:05.633Z,101396.94
2022-08-18T19:36:35.272Z,101392.66
2022-08-18T19:39:46.398Z,101392.03
2022-08-18T19:43:01.072Z,101393.31
2022-08-18T19:46:19.591Z,101389.25
2022-08-18T19:49:33.477Z,101393.25
2022-08-18T19:53:10.973Z,101392.56
2022-08-18T19:56:34.276Z,101394.09
2022-08-18T20:00:03.327Z,101387.75
2022-08-18T20:03:32.962Z,101394.97
2022-08-18T20:07:08.407Z,101385.41
2022-08-18T20:10:24.952Z,101385.72
2022-08-18T20:13:43.106Z,101391.72
2022-08-18T20:17:15.932Z,101396.84
2022-08-18T20:20:18.014Z,101398.19
2022-08-18T20:23:56.240Z,101403.81
2022-08-18T20:27:15.142Z,101403.91
2022-08-18T20:30:19.881Z,101404.06
2022-08-18T20:33:25.897Z,101404.28
2022-08-18T20:36:35.810Z,101406.47
2022-08-18T20:39:49.398Z,101412.09
2022-08-18T20:42:56.147Z,101405.25
2022-08-18T20:46:31.542Z,101402.75
2022-08-18T20:49:51.354Z,101408.09
2022-08-18T20:52:56.023Z,101402.03
2022-08-18T20:56:43.921Z,101412.00
2022-08-18T20:59:57.574Z,101408.63
2022-08-18T21:03:07.100Z,101408.38
2022-08-18T21:06:10.128Z,101408.53
2022-08-18T21:09:17.573Z,101405.28
2022-08-18T21:12:25.445Z,101411.88
2022-08-18T21:15:45.234Z,101406.06
2022-08-18T21:18:51.718Z,101409.81
2022-08-18T21:21:58.635Z,101401.94
2022-08-18T21:25:01.907Z,101405.84
2022-08-18T21:28:06.017Z,101411.44
2022-08-18T21:31:29.168Z,101404.38
2022-08-18T21:34:45.470Z,101406.56
2022-08-18T21:38:04.272Z,101406.84
2022-08-18T21:41:12.288Z,101405.25
2022-08-18T21:44:32.045Z,101404.81
2022-08-18T21:47:34.837Z,101415.75
2022-08-18T21:50:37.420Z,101422.19
2022-08-18T21:53:39.503Z,101417.16
2022-08-18T21:56:41.557Z,101413.69
2022-08-18T22:00:11.368Z,101420.66
2022-08-18T22:03:22.294Z,101421.16
2022-08-18T22:06:30.237Z,101415.84
2022-08-18T22:09:35.498Z,101422.19
2022-08-18T22:12:37.502Z,101411.78
2022-08-18T22:15:44.365Z,101410.63
2022-08-18T22:18:46.408Z,101410.91
2022-08-18T22:22:00.789Z,101405.84
2022-08-18T22:25:05.817Z,101411.59
2022-08-18T22:28:07.876Z,101407.06
2022-08-18T22:31:09.925Z,101402.66
2022-08-18T22:34:14.083Z,101403.38
2022-08-18T22:37:21.124Z,101413.44
2022-08-18T22:40:23.208Z,101414.44
2022-08-18T22:43:25.686Z,101427.97
2022-08-18T22:46:27.731Z,101422.66
2022-08-18T22:49:30.641Z,101421.84
2022-08-18T22:52:39.873Z,101421.16
2022-08-18T22:55:41.898Z,101437.13
2022-08-18T22:58:43.952Z,101431.22
2022-08-18T23:01:50.162Z,101428.47
2022-08-18T23:04:52.298Z,101430.47
2022-08-18T23:07:54.569Z,101426.00
2022-08-18T23:10:56.601Z,101421.69
2022-08-18T23:14:02.407Z,101425.16
2022-08-18T23:17:05.764Z,101425.16
2022-08-18T23:20:11.973Z,101429.44
2022-08-18T23:23:19.230Z,101430.47
2022-08-18T23:26:23.254Z,101435.88
2022-08-18T23:29:25.564Z,101441.38
2022-08-18T23:32:30.191Z,101435.13
2022-08-18T23:35:34.069Z,101437.97
2022-08-18T23:38:36.876Z,101440.94
2022-08-18T23:41:38.897Z,101436.69
2022-08-18T23:44:41.044Z,101431.63
2022-08-18T23:47:43.200Z,101424.78
2022-08-18T23:50:46.492Z,101424.91
2022-08-18T23:53:48.513Z,101423.28
2022-08-18T23:56:50.609Z,101417.97
2022-08-18T23:59:52.634Z,101428.63
